sensor_id;sensor_type;location;lat;lon;timestamp;P1;durP1;ratioP1;P2;durP2;ratioP2
15063;SDS011;7631;52.088;5.088;2022-11-20T00:01:42;7.90;;;6.40;;
15063;SDS011;7631;52.088;5.088;2022-11-20T00:04:07;8.50;;;6.50;;
15063;SDS011;7631;52.088;5.088;2022-11-20T00:06:33;7.10;;;5.97;;
15063;SDS011;7631;52.088;5.088;2022-11-20T00:08:59;8.73;;;7.27;;
15063;SDS011;7631;52.088;5.088;2022-11-20T00:11:25;7.63;;;6.03;;
15063;SDS011;7631;52.088;5.088;2022-11-20T00:13:52;7.17;;;5.67;;
15063;SDS011;7631;52.088;5.088;2022-11-20T00:16:18;7.70;;;5.90;;
15063;SDS011;7631;52.088;5.088;2022-11-20T00:18:44;7.63;;;5.80;;
15063;SDS011;7631;52.088;5.088;2022-11-20T00:21:17;8.37;;;6.67;;
15063;SDS011;7631;52.088;5.088;2022-11-20T00:23:43;9.40;;;7.30;;
15063;SDS011;7631;52.088;5.088;2022-11-20T00:26:09;8.80;;;6.60;;
15063;SDS011;7631;52.088;5.088;2022-11-20T00:28:35;6.77;;;5.77;;
15063;SDS011;7631;52.088;5.088;2022-11-20T00:31:01;7.37;;;6.10;;
15063;SDS011;7631;52.088;5.088;2022-11-20T00:33:27;8.07;;;6.30;;
15063;SDS011;7631;52.088;5.088;2022-11-20T00:35:52;9.33;;;7.10;;
15063;SDS011;7631;52.088;5.088;2022-11-20T00:38:17;7.73;;;6.30;;
15063;SDS011;7631;52.088;5.088;2022-11-20T00:40:43;9.00;;;6.80;;
15063;SDS011;7631;52.088;5.088;2022-11-20T00:43:08;7.97;;;6.60;;
15063;SDS011;7631;52.088;5.088;2022-11-20T00:45:33;8.43;;;6.33;;
15063;SDS011;7631;52.088;5.088;2022-11-20T00:47:58;7.70;;;6.17;;
15063;SDS011;7631;52.088;5.088;2022-11-20T00:50:23;7.47;;;6.30;;
15063;SDS011;7631;52.088;5.088;2022-11-20T00:52:49;8.63;;;6.20;;
15063;SDS011;7631;52.088;5.088;2022-11-20T00:55:14;8.23;;;6.50;;
15063;SDS011;7631;52.088;5.088;2022-11-20T00:57:39;9.27;;;6.83;;
15063;SDS011;7631;52.088;5.088;2022-11-20T01:00:04;8.37;;;6.23;;
15063;SDS011;7631;52.088;5.088;2022-11-20T01:02:30;8.70;;;6.87;;
15063;SDS011;7631;52.088;5.088;2022-11-20T01:04:55;8.00;;;6.57;;
15063;SDS011;7631;52.088;5.088;2022-11-20T01:07:20;7.97;;;6.43;;
15063;SDS011;7631;52.088;5.088;2022-11-20T01:09:45;7.93;;;6.67;;
15063;SDS011;7631;52.088;5.088;2022-11-20T01:12:10;9.27;;;6.57;;
15063;SDS011;7631;52.088;5.088;2022-11-20T01:14:36;8.60;;;6.73;;
15063;SDS011;7631;52.088;5.088;2022-11-20T01:17:01;7.13;;;6.00;;
15063;SDS011;7631;52.088;5.088;2022-11-20T01:19:26;8.20;;;6.27;;
15063;SDS011;7631;52.088;5.088;2022-11-20T01:21:52;7.97;;;6.40;;
15063;SDS011;7631;52.088;5.088;2022-11-20T01:24:19;8.27;;;6.53;;
15063;SDS011;7631;52.088;5.088;2022-11-20T01:26:46;7.97;;;6.37;;
15063;SDS011;7631;52.088;5.088;2022-11-20T01:29:15;7.80;;;6.33;;
15063;SDS011;7631;52.088;5.088;2022-11-20T01:31:41;8.57;;;6.47;;
15063;SDS011;7631;52.088;5.088;2022-11-20T01:34:08;6.97;;;6.27;;
15063;SDS011;7631;52.088;5.088;2022-11-20T01:36:34;8.90;;;6.53;;
15063;SDS011;7631;52.088;5.088;2022-11-20T01:39:01;8.17;;;6.43;;
15063;SDS011;7631;52.088;5.088;2022-11-20T01:41:27;7.77;;;6.67;;
15063;SDS011;7631;52.088;5.088;2022-11-20T01:44:12;7.93;;;6.40;;
15063;SDS011;7631;52.088;5.088;2022-11-20T01:46:40;8.57;;;6.40;;
15063;SDS011;7631;52.088;5.088;2022-11-20T01:49:08;7.33;;;6.00;;
15063;SDS011;7631;52.088;5.088;2022-11-20T01:51:38;7.60;;;6.30;;
15063;SDS011;7631;52.088;5.088;2022-11-20T01:54:05;7.63;;;6.27;;
15063;SDS011;7631;52.088;5.088;2022-11-20T01:56:31;8.53;;;6.47;;
15063;SDS011;7631;52.088;5.088;2022-11-20T01:58:58;7.63;;;6.50;;
15063;SDS011;7631;52.088;5.088;2022-11-20T02:01:25;6.83;;;5.60;;
15063;SDS011;7631;52.088;5.088;2022-11-20T02:03:50;8.23;;;6.47;;
15063;SDS011;7631;52.088;5.088;2022-11-20T02:06:17;7.50;;;6.40;;
15063;SDS011;7631;52.088;5.088;2022-11-20T02:08:44;8.57;;;6.03;;
15063;SDS011;7631;52.088;5.088;2022-11-20T02:11:09;7.80;;;6.53;;
15063;SDS011;7631;52.088;5.088;2022-11-20T02:13:34;9.37;;;6.87;;
15063;SDS011;7631;52.088;5.088;2022-11-20T02:16:10;8.33;;;6.50;;
15063;SDS011;7631;52.088;5.088;2022-11-20T02:18:36;8.07;;;6.57;;
15063;SDS011;7631;52.088;5.088;2022-11-20T02:21:06;9.63;;;6.80;;
15063;SDS011;7631;52.088;5.088;2022-11-20T02:23:33;8.40;;;6.30;;
15063;SDS011;7631;52.088;5.088;2022-11-20T02:26:01;8.40;;;6.70;;
15063;SDS011;7631;52.088;5.088;2022-11-20T02:28:27;8.37;;;6.63;;
15063;SDS011;7631;52.088;5.088;2022-11-20T02:30:52;8.60;;;6.40;;
15063;SDS011;7631;52.088;5.088;2022-11-20T02:33:17;8.57;;;6.60;;
15063;SDS011;7631;52.088;5.088;2022-11-20T02:35:43;9.03;;;6.43;;
15063;SDS011;7631;52.088;5.088;2022-11-20T02:38:09;7.43;;;5.90;;
15063;SDS011;7631;52.088;5.088;2022-11-20T02:40:34;8.23;;;6.20;;
15063;SDS011;7631;52.088;5.088;2022-11-20T02:42:59;8.53;;;6.70;;
15063;SDS011;7631;52.088;5.088;2022-11-20T02:45:25;7.63;;;6.10;;
15063;SDS011;7631;52.088;5.088;2022-11-20T02:47:50;7.30;;;6.07;;
15063;SDS011;7631;52.088;5.088;2022-11-20T02:50:15;8.67;;;6.57;;
15063;SDS011;7631;52.088;5.088;2022-11-20T02:52:41;8.77;;;6.80;;
15063;SDS011;7631;52.088;5.088;2022-11-20T02:55:06;7.07;;;6.10;;
15063;SDS011;7631;52.088;5.088;2022-11-20T02:57:31;8.07;;;6.63;;
15063;SDS011;7631;52.088;5.088;2022-11-20T02:59:57;7.33;;;6.17;;
15063;SDS011;7631;52.088;5.088;2022-11-20T03:02:22;7.70;;;6.53;;
15063;SDS011;7631;52.088;5.088;2022-11-20T03:04:47;8.67;;;6.43;;
15063;SDS011;7631;52.088;5.088;2022-11-20T03:07:13;7.73;;;6.13;;
15063;SDS011;7631;52.088;5.088;2022-11-20T03:09:38;9.03;;;6.37;;
15063;SDS011;7631;52.088;5.088;2022-11-20T03:12:03;7.37;;;6.47;;
15063;SDS011;7631;52.088;5.088;2022-11-20T03:14:29;8.27;;;6.43;;
15063;SDS011;7631;52.088;5.088;2022-11-20T03:16:54;7.93;;;6.43;;
15063;SDS011;7631;52.088;5.088;2022-11-20T03:19:20;7.40;;;5.97;;
15063;SDS011;7631;52.088;5.088;2022-11-20T03:21:45;6.63;;;5.93;;
15063;SDS011;7631;52.088;5.088;2022-11-20T03:24:10;6.87;;;5.63;;
15063;SDS011;7631;52.088;5.088;2022-11-20T03:26:35;7.03;;;5.83;;
15063;SDS011;7631;52.088;5.088;2022-11-20T03:29:02;6.97;;;5.67;;
15063;SDS011;7631;52.088;5.088;2022-11-20T03:31:35;7.10;;;6.17;;
15063;SDS011;7631;52.088;5.088;2022-11-20T03:34:01;8.00;;;6.37;;
15063;SDS011;7631;52.088;5.088;2022-11-20T03:36:26;9.33;;;6.50;;
15063;SDS011;7631;52.088;5.088;2022-11-20T03:38:52;7.73;;;6.07;;
15063;SDS011;7631;52.088;5.088;2022-11-20T03:41:19;7.00;;;5.63;;
15063;SDS011;7631;52.088;5.088;2022-11-20T03:43:48;7.93;;;6.30;;
15063;SDS011;7631;52.088;5.088;2022-11-20T03:46:14;7.93;;;6.00;;
15063;SDS011;7631;52.088;5.088;2022-11-20T03:48:39;7.33;;;5.83;;
15063;SDS011;7631;52.088;5.088;2022-11-20T03:51:14;7.30;;;5.53;;
15063;SDS011;7631;52.088;5.088;2022-11-20T03:53:40;7.93;;;6.20;;
15063;SDS011;7631;52.088;5.088;2022-11-20T03:56:06;8.27;;;6.07;;
15063;SDS011;7631;52.088;5.088;2022-11-20T03:58:32;8.40;;;6.30;;
15063;SDS011;7631;52.088;5.088;2022-11-20T04:00:57;8.90;;;6.40;;
15063;SDS011;7631;52.088;5.088;2022-11-20T04:03:22;6.73;;;5.70;;
15063;SDS011;7631;52.088;5.088;2022-11-20T04:05:47;8.80;;;6.33;;
15063;SDS011;7631;52.088;5.088;2022-11-20T04:08:12;6.80;;;5.90;;
15063;SDS011;7631;52.088;5.088;2022-11-20T04:10:38;8.30;;;6.20;;
15063;SDS011;7631;52.088;5.088;2022-11-20T04:13:03;8.33;;;5.93;;
15063;SDS011;7631;52.088;5.088;2022-11-20T04:15:28;8.40;;;6.20;;
15063;SDS011;7631;52.088;5.088;2022-11-20T04:17:54;7.90;;;6.10;;
15063;SDS011;7631;52.088;5.088;2022-11-20T04:20:19;8.47;;;6.23;;
15063;SDS011;7631;52.088;5.088;2022-11-20T04:22:44;7.13;;;5.83;;
15063;SDS011;7631;52.088;5.088;2022-11-20T04:25:09;7.37;;;5.87;;
15063;SDS011;7631;52.088;5.088;2022-11-20T04:27:35;6.53;;;5.23;;
15063;SDS011;7631;52.088;5.088;2022-11-20T04:30:00;7.53;;;6.33;;
15063;SDS011;7631;52.088;5.088;2022-11-20T04:32:25;7.47;;;6.10;;
15063;SDS011;7631;52.088;5.088;2022-11-20T04:34:50;6.80;;;5.97;;
15063;SDS011;7631;52.088;5.088;2022-11-20T04:37:15;6.50;;;5.70;;
15063;SDS011;7631;52.088;5.088;2022-11-20T04:39:41;8.17;;;6.10;;
15063;SDS011;7631;52.088;5.088;2022-11-20T04:42:07;7.77;;;5.87;;
15063;SDS011;7631;52.088;5.088;2022-11-20T04:44:51;7.70;;;6.07;;
15063;SDS011;7631;52.088;5.088;2022-11-20T04:47:16;6.97;;;6.10;;
15063;SDS011;7631;52.088;5.088;2022-11-20T04:49:42;7.17;;;5.33;;
15063;SDS011;7631;52.088;5.088;2022-11-20T04:52:07;8.63;;;6.43;;
15063;SDS011;7631;52.088;5.088;2022-11-20T04:54:32;8.07;;;5.87;;
15063;SDS011;7631;52.088;5.088;2022-11-20T04:56:57;7.80;;;6.03;;
15063;SDS011;7631;52.088;5.088;2022-11-20T04:59:22;7.77;;;5.97;;
15063;SDS011;7631;52.088;5.088;2022-11-20T05:01:48;6.57;;;5.57;;
15063;SDS011;7631;52.088;5.088;2022-11-20T05:04:13;7.30;;;5.70;;
15063;SDS011;7631;52.088;5.088;2022-11-20T05:06:38;7.40;;;5.80;;
15063;SDS011;7631;52.088;5.088;2022-11-20T05:09:03;7.03;;;5.87;;
15063;SDS011;7631;52.088;5.088;2022-11-20T05:11:28;6.60;;;5.60;;
15063;SDS011;7631;52.088;5.088;2022-11-20T05:13:54;7.83;;;5.40;;
15063;SDS011;7631;52.088;5.088;2022-11-20T05:16:20;7.43;;;5.50;;
15063;SDS011;7631;52.088;5.088;2022-11-20T05:18:45;7.57;;;5.87;;
15063;SDS011;7631;52.088;5.088;2022-11-20T05:21:11;8.43;;;6.30;;
15063;SDS011;7631;52.088;5.088;2022-11-20T05:23:37;6.80;;;5.70;;
15063;SDS011;7631;52.088;5.088;2022-11-20T05:26:02;7.43;;;6.63;;
15063;SDS011;7631;52.088;5.088;2022-11-20T05:28:29;7.47;;;5.80;;
15063;SDS011;7631;52.088;5.088;2022-11-20T05:30:54;6.83;;;6.13;;
15063;SDS011;7631;52.088;5.088;2022-11-20T05:33:19;7.20;;;5.77;;
15063;SDS011;7631;52.088;5.088;2022-11-20T05:35:45;7.30;;;6.10;;
15063;SDS011;7631;52.088;5.088;2022-11-20T05:38:10;8.53;;;5.90;;
15063;SDS011;7631;52.088;5.088;2022-11-20T05:40:35;7.20;;;5.83;;
15063;SDS011;7631;52.088;5.088;2022-11-20T05:43:01;7.23;;;6.00;;
15063;SDS011;7631;52.088;5.088;2022-11-20T05:45:26;7.33;;;6.23;;
15063;SDS011;7631;52.088;5.088;2022-11-20T05:47:51;7.33;;;5.90;;
15063;SDS011;7631;52.088;5.088;2022-11-20T05:50:17;7.20;;;6.00;;
15063;SDS011;7631;52.088;5.088;2022-11-20T05:52:42;6.77;;;5.83;;
15063;SDS011;7631;52.088;5.088;2022-11-20T05:55:07;7.47;;;5.53;;
15063;SDS011;7631;52.088;5.088;2022-11-20T05:57:32;8.17;;;5.67;;
15063;SDS011;7631;52.088;5.088;2022-11-20T05:59:58;7.23;;;6.37;;
15063;SDS011;7631;52.088;5.088;2022-11-20T06:02:23;6.73;;;5.77;;
15063;SDS011;7631;52.088;5.088;2022-11-20T06:04:48;7.10;;;6.00;;
15063;SDS011;7631;52.088;5.088;2022-11-20T06:07:13;6.93;;;6.07;;
15063;SDS011;7631;52.088;5.088;2022-11-20T06:09:39;7.97;;;5.77;;
15063;SDS011;7631;52.088;5.088;2022-11-20T06:12:04;8.13;;;6.43;;
15063;SDS011;7631;52.088;5.088;2022-11-20T06:14:29;9.17;;;6.70;;
15063;SDS011;7631;52.088;5.088;2022-11-20T06:16:54;7.00;;;6.23;;
15063;SDS011;7631;52.088;5.088;2022-11-20T06:19:20;8.37;;;7.07;;
15063;SDS011;7631;52.088;5.088;2022-11-20T06:21:45;6.87;;;5.90;;
15063;SDS011;7631;52.088;5.088;2022-11-20T06:24:12;6.97;;;5.80;;
15063;SDS011;7631;52.088;5.088;2022-11-20T06:26:37;8.23;;;6.13;;
15063;SDS011;7631;52.088;5.088;2022-11-20T06:29:02;6.70;;;5.60;;
15063;SDS011;7631;52.088;5.088;2022-11-20T06:31:27;7.27;;;6.00;;
15063;SDS011;7631;52.088;5.088;2022-11-20T06:33:53;6.50;;;5.77;;
15063;SDS011;7631;52.088;5.088;2022-11-20T06:36:19;6.60;;;5.87;;
15063;SDS011;7631;52.088;5.088;2022-11-20T06:38:44;6.77;;;5.57;;
15063;SDS011;7631;52.088;5.088;2022-11-20T06:41:11;9.13;;;6.50;;
15063;SDS011;7631;52.088;5.088;2022-11-20T06:43:36;7.10;;;6.10;;
15063;SDS011;7631;52.088;5.088;2022-11-20T06:46:02;7.37;;;5.83;;
15063;SDS011;7631;52.088;5.088;2022-11-20T06:48:27;7.57;;;6.03;;
15063;SDS011;7631;52.088;5.088;2022-11-20T06:50:52;7.23;;;5.77;;
15063;SDS011;7631;52.088;5.088;2022-11-20T06:53:17;8.47;;;6.43;;
15063;SDS011;7631;52.088;5.088;2022-11-20T06:55:43;7.43;;;6.00;;
15063;SDS011;7631;52.088;5.088;2022-11-20T06:58:09;7.07;;;5.73;;
15063;SDS011;7631;52.088;5.088;2022-11-20T07:00:34;8.67;;;6.13;;
15063;SDS011;7631;52.088;5.088;2022-11-20T07:03:02;8.23;;;6.40;;
15063;SDS011;7631;52.088;5.088;2022-11-20T07:05:27;8.47;;;6.27;;
15063;SDS011;7631;52.088;5.088;2022-11-20T07:07:55;7.43;;;5.73;;
15063;SDS011;7631;52.088;5.088;2022-11-20T07:10:20;8.13;;;6.63;;
15063;SDS011;7631;52.088;5.088;2022-11-20T07:12:49;6.53;;;5.70;;
15063;SDS011;7631;52.088;5.088;2022-11-20T07:15:14;8.23;;;6.17;;
15063;SDS011;7631;52.088;5.088;2022-11-20T07:17:39;7.90;;;6.40;;
15063;SDS011;7631;52.088;5.088;2022-11-20T07:20:04;8.33;;;6.23;;
15063;SDS011;7631;52.088;5.088;2022-11-20T07:22:30;6.83;;;5.87;;
15063;SDS011;7631;52.088;5.088;2022-11-20T07:24:55;7.53;;;6.40;;
15063;SDS011;7631;52.088;5.088;2022-11-20T07:27:20;7.50;;;6.07;;
15063;SDS011;7631;52.088;5.088;2022-11-20T07:29:45;7.67;;;6.07;;
15063;SDS011;7631;52.088;5.088;2022-11-20T07:32:10;7.47;;;6.10;;
15063;SDS011;7631;52.088;5.088;2022-11-20T07:34:36;8.37;;;6.40;;
15063;SDS011;7631;52.088;5.088;2022-11-20T07:37:01;7.00;;;5.93;;
15063;SDS011;7631;52.088;5.088;2022-11-20T07:39:26;6.97;;;6.03;;
15063;SDS011;7631;52.088;5.088;2022-11-20T07:41:51;7.03;;;6.27;;
15063;SDS011;7631;52.088;5.088;2022-11-20T07:44:16;8.03;;;6.47;;
15063;SDS011;7631;52.088;5.088;2022-11-20T07:46:42;8.87;;;6.63;;
15063;SDS011;7631;52.088;5.088;2022-11-20T07:49:07;7.60;;;6.33;;
15063;SDS011;7631;52.088;5.088;2022-11-20T07:51:32;7.50;;;6.10;;
15063;SDS011;7631;52.088;5.088;2022-11-20T07:53:58;7.60;;;5.87;;
15063;SDS011;7631;52.088;5.088;2022-11-20T07:56:23;7.50;;;6.43;;
15063;SDS011;7631;52.088;5.088;2022-11-20T07:58:48;7.07;;;5.87;;
15063;SDS011;7631;52.088;5.088;2022-11-20T08:01:13;7.67;;;6.20;;
15063;SDS011;7631;52.088;5.088;2022-11-20T08:03:38;7.60;;;6.30;;
15063;SDS011;7631;52.088;5.088;2022-11-20T08:06:04;7.33;;;6.43;;
15063;SDS011;7631;52.088;5.088;2022-11-20T08:08:29;8.00;;;6.13;;
15063;SDS011;7631;52.088;5.088;2022-11-20T08:10:56;8.57;;;6.77;;
15063;SDS011;7631;52.088;5.088;2022-11-20T08:13:41;7.17;;;5.83;;
15063;SDS011;7631;52.088;5.088;2022-11-20T08:16:25;7.90;;;6.30;;
15063;SDS011;7631;52.088;5.088;2022-11-20T08:18:50;8.70;;;6.37;;
15063;SDS011;7631;52.088;5.088;2022-11-20T08:21:16;7.37;;;6.20;;
15063;SDS011;7631;52.088;5.088;2022-11-20T08:23:41;8.60;;;6.63;;
15063;SDS011;7631;52.088;5.088;2022-11-20T08:26:06;7.53;;;6.27;;
15063;SDS011;7631;52.088;5.088;2022-11-20T08:28:31;8.10;;;6.30;;
15063;SDS011;7631;52.088;5.088;2022-11-20T08:31:00;7.83;;;5.87;;
15063;SDS011;7631;52.088;5.088;2022-11-20T08:33:25;8.47;;;6.73;;
15063;SDS011;7631;52.088;5.088;2022-11-20T08:35:50;7.43;;;6.17;;
15063;SDS011;7631;52.088;5.088;2022-11-20T08:38:16;7.63;;;6.10;;
15063;SDS011;7631;52.088;5.088;2022-11-20T08:40:41;7.77;;;6.40;;
15063;SDS011;7631;52.088;5.088;2022-11-20T08:43:26;7.50;;;6.23;;
15063;SDS011;7631;52.088;5.088;2022-11-20T08:45:51;8.60;;;6.37;;
15063;SDS011;7631;52.088;5.088;2022-11-20T08:48:16;8.37;;;6.13;;
15063;SDS011;7631;52.088;5.088;2022-11-20T08:50:41;7.73;;;6.30;;
15063;SDS011;7631;52.088;5.088;2022-11-20T08:53:07;8.50;;;6.77;;
15063;SDS011;7631;52.088;5.088;2022-11-20T08:55:32;8.33;;;6.43;;
15063;SDS011;7631;52.088;5.088;2022-11-20T08:57:57;7.23;;;6.17;;
15063;SDS011;7631;52.088;5.088;2022-11-20T09:00:23;8.43;;;7.00;;
15063;SDS011;7631;52.088;5.088;2022-11-20T09:02:48;7.63;;;5.93;;
15063;SDS011;7631;52.088;5.088;2022-11-20T09:05:13;8.20;;;6.50;;
15063;SDS011;7631;52.088;5.088;2022-11-20T09:07:38;7.80;;;6.30;;
15063;SDS011;7631;52.088;5.088;2022-11-20T09:10:05;8.60;;;6.90;;
15063;SDS011;7631;52.088;5.088;2022-11-20T09:12:30;8.63;;;6.80;;
15063;SDS011;7631;52.088;5.088;2022-11-20T09:14:55;8.67;;;6.47;;
15063;SDS011;7631;52.088;5.088;2022-11-20T09:17:20;8.07;;;6.47;;
15063;SDS011;7631;52.088;5.088;2022-11-20T09:19:46;8.17;;;6.37;;
15063;SDS011;7631;52.088;5.088;2022-11-20T09:22:11;9.40;;;7.17;;
15063;SDS011;7631;52.088;5.088;2022-11-20T09:24:36;8.33;;;7.00;;
15063;SDS011;7631;52.088;5.088;2022-11-20T09:27:03;7.63;;;6.47;;
15063;SDS011;7631;52.088;5.088;2022-11-20T09:29:28;9.07;;;6.90;;
15063;SDS011;7631;52.088;5.088;2022-11-20T09:31:53;8.23;;;6.50;;
15063;SDS011;7631;52.088;5.088;2022-11-20T09:34:18;10.17;;;7.23;;
15063;SDS011;7631;52.088;5.088;2022-11-20T09:36:43;8.37;;;6.90;;
15063;SDS011;7631;52.088;5.088;2022-11-20T09:39:09;8.67;;;6.60;;
15063;SDS011;7631;52.088;5.088;2022-11-20T09:41:45;9.00;;;6.93;;
15063;SDS011;7631;52.088;5.088;2022-11-20T09:44:26;8.47;;;6.73;;
15063;SDS011;7631;52.088;5.088;2022-11-20T09:46:55;8.60;;;7.07;;
15063;SDS011;7631;52.088;5.088;2022-11-20T09:54:38;9.00;;;6.97;;
15063;SDS011;7631;52.088;5.088;2022-11-20T09:57:05;7.80;;;6.10;;
15063;SDS011;7631;52.088;5.088;2022-11-20T09:59:35;9.67;;;7.40;;
15063;SDS011;7631;52.088;5.088;2022-11-20T10:02:02;7.80;;;6.77;;
15063;SDS011;7631;52.088;5.088;2022-11-20T10:04:28;9.63;;;7.30;;
15063;SDS011;7631;52.088;5.088;2022-11-20T10:07:15;8.00;;;6.40;;
15063;SDS011;7631;52.088;5.088;2022-11-20T10:09:41;9.90;;;7.00;;
15063;SDS011;7631;52.088;5.088;2022-11-20T10:12:20;8.50;;;7.20;;
15063;SDS011;7631;52.088;5.088;2022-11-20T10:25:37;11.67;;;8.27;;
15063;SDS011;7631;52.088;5.088;2022-11-20T10:30:40;8.63;;;7.73;;
15063;SDS011;7631;52.088;5.088;2022-11-20T10:33:11;9.87;;;7.83;;
15063;SDS011;7631;52.088;5.088;2022-11-20T10:35:39;9.73;;;7.80;;
15063;SDS011;7631;52.088;5.088;2022-11-20T10:38:10;9.00;;;7.93;;
15063;SDS011;7631;52.088;5.088;2022-11-20T10:40:42;9.57;;;7.80;;
15063;SDS011;7631;52.088;5.088;2022-11-20T10:43:09;11.53;;;8.33;;
15063;SDS011;7631;52.088;5.088;2022-11-20T10:45:51;9.87;;;8.17;;
15063;SDS011;7631;52.088;5.088;2022-11-20T10:48:23;9.43;;;8.07;;
15063;SDS011;7631;52.088;5.088;2022-11-20T10:53:40;9.23;;;7.40;;
15063;SDS011;7631;52.088;5.088;2022-11-20T10:56:05;9.63;;;8.10;;
15063;SDS011;7631;52.088;5.088;2022-11-20T10:58:45;10.50;;;8.30;;
15063;SDS011;7631;52.088;5.088;2022-11-20T11:01:20;10.33;;;8.13;;
15063;SDS011;7631;52.088;5.088;2022-11-20T11:03:48;9.93;;;7.60;;
15063;SDS011;7631;52.088;5.088;2022-11-20T11:08:56;11.40;;;9.03;;
15063;SDS011;7631;52.088;5.088;2022-11-20T11:11:32;9.63;;;8.10;;
15063;SDS011;7631;52.088;5.088;2022-11-20T11:14:04;11.57;;;8.60;;
15063;SDS011;7631;52.088;5.088;2022-11-20T11:16:30;9.50;;;7.97;;
15063;SDS011;7631;52.088;5.088;2022-11-20T11:21:51;11.37;;;9.00;;
15063;SDS011;7631;52.088;5.088;2022-11-20T11:24:24;11.33;;;8.70;;
15063;SDS011;7631;52.088;5.088;2022-11-20T11:26:51;10.50;;;8.47;;
15063;SDS011;7631;52.088;5.088;2022-11-20T11:29:17;9.53;;;8.27;;
15063;SDS011;7631;52.088;5.088;2022-11-20T11:31:42;9.90;;;8.20;;
15063;SDS011;7631;52.088;5.088;2022-11-20T11:34:11;9.93;;;7.77;;
15063;SDS011;7631;52.088;5.088;2022-11-20T11:36:36;10.17;;;8.53;;
15063;SDS011;7631;52.088;5.088;2022-11-20T11:39:02;10.97;;;8.90;;
15063;SDS011;7631;52.088;5.088;2022-11-20T11:41:29;10.47;;;7.97;;
15063;SDS011;7631;52.088;5.088;2022-11-20T11:43:57;11.27;;;8.77;;
15063;SDS011;7631;52.088;5.088;2022-11-20T11:46:44;10.70;;;8.40;;
15063;SDS011;7631;52.088;5.088;2022-11-20T11:49:17;11.90;;;9.23;;
15063;SDS011;7631;52.088;5.088;2022-11-20T11:51:50;12.87;;;9.23;;
15063;SDS011;7631;52.088;5.088;2022-11-20T11:54:32;11.40;;;8.80;;
15063;SDS011;7631;52.088;5.088;2022-11-20T11:57:00;12.17;;;9.10;;
15063;SDS011;7631;52.088;5.088;2022-11-20T11:59:27;10.87;;;9.00;;
15063;SDS011;7631;52.088;5.088;2022-11-20T12:02:02;12.17;;;9.50;;
15063;SDS011;7631;52.088;5.088;2022-11-20T12:07:06;11.73;;;9.00;;
15063;SDS011;7631;52.088;5.088;2022-11-20T12:09:41;12.83;;;9.57;;
15063;SDS011;7631;52.088;5.088;2022-11-20T12:12:13;12.23;;;8.40;;
15063;SDS011;7631;52.088;5.088;2022-11-20T12:14:40;11.33;;;9.00;;
15063;SDS011;7631;52.088;5.088;2022-11-20T12:17:08;10.90;;;9.00;;
15063;SDS011;7631;52.088;5.088;2022-11-20T12:19:35;11.50;;;9.40;;
15063;SDS011;7631;52.088;5.088;2022-11-20T12:22:12;12.93;;;9.37;;
15063;SDS011;7631;52.088;5.088;2022-11-20T12:24:41;12.00;;;9.27;;
15063;SDS011;7631;52.088;5.088;2022-11-20T12:29:43;13.57;;;10.10;;
15063;SDS011;7631;52.088;5.088;2022-11-20T12:32:23;12.43;;;9.13;;
15063;SDS011;7631;52.088;5.088;2022-11-20T12:35:16;14.50;;;9.63;;
15063;SDS011;7631;52.088;5.088;2022-11-20T12:37:48;12.70;;;9.73;;
15063;SDS011;7631;52.088;5.088;2022-11-20T12:40:20;14.13;;;9.67;;
15063;SDS011;7631;52.088;5.088;2022-11-20T12:47:07;14.43;;;10.57;;
15063;SDS011;7631;52.088;5.088;2022-11-20T12:48:58;12.37;;;10.47;;
15063;SDS011;7631;52.088;5.088;2022-11-20T12:59:01;14.77;;;10.30;;
15063;SDS011;7631;52.088;5.088;2022-11-20T13:06:34;16.03;;;11.37;;
15063;SDS011;7631;52.088;5.088;2022-11-20T13:09:00;17.67;;;11.07;;
15063;SDS011;7631;52.088;5.088;2022-11-20T13:11:33;16.57;;;11.50;;
15063;SDS011;7631;52.088;5.088;2022-11-20T13:19:12;15.13;;;10.87;;
15063;SDS011;7631;52.088;5.088;2022-11-20T13:21:39;17.67;;;11.30;;
15063;SDS011;7631;52.088;5.088;2022-11-20T13:24:19;15.53;;;11.40;;
15063;SDS011;7631;52.088;5.088;2022-11-20T13:26:46;16.47;;;11.40;;
15063;SDS011;7631;52.088;5.088;2022-11-20T13:29:15;16.67;;;11.90;;
15063;SDS011;7631;52.088;5.088;2022-11-20T13:31:43;15.90;;;11.30;;
15063;SDS011;7631;52.088;5.088;2022-11-20T13:34:09;17.00;;;11.80;;
15063;SDS011;7631;52.088;5.088;2022-11-20T13:36:36;18.63;;;12.30;;
15063;SDS011;7631;52.088;5.088;2022-11-20T13:39:01;14.70;;;11.17;;
15063;SDS011;7631;52.088;5.088;2022-11-20T13:43:53;16.17;;;12.20;;
15063;SDS011;7631;52.088;5.088;2022-11-20T13:46:19;17.73;;;12.13;;
15063;SDS011;7631;52.088;5.088;2022-11-20T13:48:49;17.03;;;11.87;;
15063;SDS011;7631;52.088;5.088;2022-11-20T13:57:05;16.20;;;11.87;;
15063;SDS011;7631;52.088;5.088;2022-11-20T14:02:15;15.47;;;10.80;;
15063;SDS011;7631;52.088;5.088;2022-11-20T14:04:45;17.37;;;11.27;;
15063;SDS011;7631;52.088;5.088;2022-11-20T14:07:11;17.90;;;12.00;;
15063;SDS011;7631;52.088;5.088;2022-11-20T14:09:37;16.77;;;11.83;;
15063;SDS011;7631;52.088;5.088;2022-11-20T14:12:02;19.70;;;12.43;;
15063;SDS011;7631;52.088;5.088;2022-11-20T14:14:29;17.10;;;12.37;;
15063;SDS011;7631;52.088;5.088;2022-11-20T14:19:39;15.43;;;11.40;;
15063;SDS011;7631;52.088;5.088;2022-11-20T14:22:07;18.70;;;12.33;;
15063;SDS011;7631;52.088;5.088;2022-11-20T14:24:32;16.83;;;12.07;;
15063;SDS011;7631;52.088;5.088;2022-11-20T14:26:58;17.03;;;12.03;;
15063;SDS011;7631;52.088;5.088;2022-11-20T14:29:27;17.90;;;12.00;;
15063;SDS011;7631;52.088;5.088;2022-11-20T14:31:53;17.10;;;12.13;;
15063;SDS011;7631;52.088;5.088;2022-11-20T14:34:20;19.00;;;12.67;;
15063;SDS011;7631;52.088;5.088;2022-11-20T14:36:46;16.57;;;12.30;;
15063;SDS011;7631;52.088;5.088;2022-11-20T14:39:12;15.40;;;11.87;;
15063;SDS011;7631;52.088;5.088;2022-11-20T14:41:50;17.80;;;12.30;;
15063;SDS011;7631;52.088;5.088;2022-11-20T14:44:15;19.17;;;13.10;;
15063;SDS011;7631;52.088;5.088;2022-11-20T14:46:40;18.70;;;13.13;;
15063;SDS011;7631;52.088;5.088;2022-11-20T14:49:07;17.53;;;12.00;;
15063;SDS011;7631;52.088;5.088;2022-11-20T14:51:36;17.20;;;12.37;;
15063;SDS011;7631;52.088;5.088;2022-11-20T14:54:17;18.07;;;12.63;;
15063;SDS011;7631;52.088;5.088;2022-11-20T14:56:55;17.97;;;12.77;;
15063;SDS011;7631;52.088;5.088;2022-11-20T14:59:24;16.33;;;11.70;;
15063;SDS011;7631;52.088;5.088;2022-11-20T15:01:59;19.37;;;13.60;;
15063;SDS011;7631;52.088;5.088;2022-11-20T15:04:24;17.43;;;12.90;;
15063;SDS011;7631;52.088;5.088;2022-11-20T15:06:51;16.67;;;12.03;;
15063;SDS011;7631;52.088;5.088;2022-11-20T15:09:16;16.47;;;12.17;;
15063;SDS011;7631;52.088;5.088;2022-11-20T15:11:50;18.47;;;12.57;;
15063;SDS011;7631;52.088;5.088;2022-11-20T15:14:16;19.83;;;12.77;;
15063;SDS011;7631;52.088;5.088;2022-11-20T15:16:42;17.50;;;12.30;;
15063;SDS011;7631;52.088;5.088;2022-11-20T15:19:09;19.47;;;14.30;;
15063;SDS011;7631;52.088;5.088;2022-11-20T15:21:40;22.08;;;16.65;;
15063;SDS011;7631;52.088;5.088;2022-11-20T15:24:08;20.93;;;14.07;;
15063;SDS011;7631;52.088;5.088;2022-11-20T15:26:33;19.47;;;13.40;;
15063;SDS011;7631;52.088;5.088;2022-11-20T15:28:59;20.23;;;13.93;;
15063;SDS011;7631;52.088;5.088;2022-11-20T15:31:24;19.10;;;13.13;;
15063;SDS011;7631;52.088;5.088;2022-11-20T15:33:50;22.43;;;14.33;;
15063;SDS011;7631;52.088;5.088;2022-11-20T15:36:15;17.60;;;12.63;;
15063;SDS011;7631;52.088;5.088;2022-11-20T15:38:40;21.07;;;13.80;;
15063;SDS011;7631;52.088;5.088;2022-11-20T15:41:06;19.00;;;13.83;;
15063;SDS011;7631;52.088;5.088;2022-11-20T15:43:31;19.53;;;13.43;;
15063;SDS011;7631;52.088;5.088;2022-11-20T15:45:59;19.20;;;12.70;;
15063;SDS011;7631;52.088;5.088;2022-11-20T15:48:58;18.27;;;12.70;;
15063;SDS011;7631;52.088;5.088;2022-11-20T15:53:57;18.77;;;13.27;;
15063;SDS011;7631;52.088;5.088;2022-11-20T15:56:23;16.97;;;12.60;;
15063;SDS011;7631;52.088;5.088;2022-11-20T15:58:48;19.50;;;13.13;;
15063;SDS011;7631;52.088;5.088;2022-11-20T16:01:14;18.70;;;12.90;;
15063;SDS011;7631;52.088;5.088;2022-11-20T16:03:40;19.63;;;13.10;;
15063;SDS011;7631;52.088;5.088;2022-11-20T16:06:05;18.57;;;13.03;;